ADDS METAR Data INFO
IDs: Format: Raw Decoded Include TAF

Data at: 1714 UTC 23 Oct 2017

KCRG 231705Z 16014KT 10SM FEW024 BKN029 BKN120 28/22 A2997 RMK AO2 T02830222
KCRG 231653Z 18010KT 10SM SCT023 BKN030 28/22 A2998 RMK AO2 SLP152 T02830222
KCRG 231553Z 17010KT 9SM BKN023 28/22 A3001 RMK AO2 SLP162 T02780222
KCRG 231453Z 17010KT 6SM BR FEW031 BKN055 OVC070 27/22 A3003 RMK AO2 SLP168 T02720217 58004
KCRG 231353Z 16013KT 6SM BR CLR 27/22 A3003 RMK AO2 SLP169 T02670217
KCRG 231253Z 16009KT 6SM BR CLR 26/22 A3004 RMK AO2 SLP172 T02560222
KCRG 231153Z 16009KT 9SM CLR 26/22 A3004 RMK AO2 SLP171 70002 T02560222 10256 20256 58002
KCRG 231053Z 17007KT 8SM CLR 26/23 A3005 RMK AO2 SLP174 T02560233
KCRG 230953Z 16006KT 8SM CLR 26/23 A3004 RMK AO2 SLP172 T02560233
KCRG 230902Z AUTO 15006KT 8SM SCT025 26/23 A3004 RMK AO2 T02560233
KCRG 230853Z AUTO 16005KT 8SM BKN025 26/23 A3004 RMK AO2 SLP173 T02560233 58016
KCRG 230813Z AUTO 16006KT 8SM BKN023 26/23 A3006 RMK AO2 T02560233
KCRG 230753Z AUTO 15007KT 8SM CLR 26/23 A3006 RMK AO2 SLP179 T02560233
KCRG 230653Z AUTO 14006KT 8SM CLR 26/23 A3008 RMK AO2 SLP185 T02560233
KCRG 230553Z AUTO 14006KT 8SM FEW110 26/23 A3009 RMK AO2 SLP189 T02560228 10261 20250 58009
KCRG 230453Z AUTO 15007KT 9SM CLR 26/22 A3010 RMK AO2 SLP192 T02560222 402940239
KCRG 230353Z AUTO 15007KT 10SM CLR 26/22 A3011 RMK AO2 SLP196 T02560222
KCRG 230253Z AUTO 14011KT 10SM CLR 26/23 A3012 RMK AO2 SLP198 T02560228 51008
KCRG 230153Z 14009KT 10SM SCT095 26/23 A3012 RMK AO2 SLP198 T02610228
KCRG 230053Z 13008KT 10SM CLR 26/23 A3011 RMK AO2 SLP197 T02560228
KCRG 230016Z 13007KT 10SM SCT011 SCT085 26/23 A3010 RMK AO2 T02560228
KCRG 230001Z 12008KT 10SM BKN011 BKN023 26/23 A3009 RMK AO2 T02610233
KCRG 222353Z 12008KT 10SM SCT011 BKN023 OVC065 26/23 A3009 RMK AO2 SLP190 60000 T02610233 10278 20256 58003
KCRG 222345Z 12008KT 10SM FEW011 BKN024 OVC075 26/23 A3010 RMK AO2 T02610228
KCRG 222253Z 11007KT 10SM FEW018 BKN065 OVC080 26/22 A3010 RMK AO2 SLP193 T02610217
KCRG 222153Z 13008KT 10SM FEW016 SCT029 OVC055 26/22 A3010 RMK AO2 SLP191 T02610217
KCRG 222100Z 10008KT 10SM BKN065 OVC095 27/23 A3010 RMK AO2 T02670228
KCRG 222053Z 10007KT 10SM BKN020 OVC070 26/22 A3010 RMK AO2 SLP193 60000 T02610222 56016
KCRG 221953Z 12010KT 10SM BKN015 BKN024 OVC090 27/22 A3012 RMK AO2 SLP198 T02670222
KCRG 221943Z 13009KT 10SM BKN017 BKN024 OVC090 27/22 A3012 RMK AO2 T02670222
KCRG 221853Z 12008KT 10SM BKN100 27/22 A3012 RMK AO2 RAE14 SLP199 P0000 T02720222
KCRG 221753Z 14011G21KT 3SM RA BR FEW023 BKN055 OVC075 25/23 A3015 RMK AO2 RAB42 SLP209 P0002 60002 T02500228 10294 20239 58015
KCRG 221653Z 11008KT 10SM SCT024 BKN034 BKN040 29/22 A3017 RMK AO2 SLP215 T02890222
KCRG 221553Z 11011G18KT 10SM FEW022 SCT034 BKN045 29/22 A3019 RMK AO2 SLP221 T02890217
KCRG 221453Z 11009KT 10SM FEW024 28/22 A3019 RMK AO2 SLP224 T02830217 50009
KCRG 221353Z 10008KT 10SM CLR 28/22 A3020 RMK AO2 SLP226 T02780217
KCRG 221253Z 08003KT 10SM CLR 26/23 A3018 RMK AO2 SLP219 T02610228
KCRG 221153Z 08004KT 10SM FEW021 24/22 A3017 RMK AO2 SLP215 T02390217 10261 20239 51007
KCRG 221053Z 08006KT 10SM FEW030 24/21 A3016 RMK AO2 SLP214 T02440211
KCRG 220953Z AUTO 09006KT 10SM CLR 24/21 A3016 RMK AO2 SLP212 T02440211
KCRG 220853Z AUTO 10009KT 10SM FEW019 SCT050 26/22 A3015 RMK AO2 SLP207 T02560217 56008
KCRG 220753Z AUTO 10005KT 10SM FEW035 BKN055 26/21 A3015 RMK AO2 SLP208 T02560206
KCRG 220653Z AUTO 10009KT 10SM OVC055 26/21 A3016 RMK AO2 SLP211 T02560206
KCRG 220553Z AUTO 00000KT 10SM BKN060 24/21 A3017 RMK AO2 SLP216 T02390211 10261 20239 58011